TimeEDT,TemperatureF,Dew PointF,Humidity,Sea Level PressureIn,VisibilityMPH,Wind Direction,Wind SpeedMPH,Gust SpeedMPH,PrecipitationIn,Events,Conditions,WindDirDegrees,DateUTC
12:53 AM,53.1,39.9,61,29.92,10.0,North,10.4,-,N/A,,Mostly Cloudy,350,2013-09-23 04:53:00
1:53 AM,54.0,39.9,59,29.94,10.0,North,10.4,-,N/A,,Overcast,360,2013-09-23 05:53:00
2:53 AM,51.1,39.9,66,29.94,10.0,NNW,3.5,-,N/A,,Clear,340,2013-09-23 06:53:00
3:53 AM,48.9,39.9,71,29.95,10.0,NNW,5.8,-,N/A,,Partly Cloudy,330,2013-09-23 07:53:00
4:53 AM,50.0,39.9,68,29.96,10.0,NNW,6.9,-,N/A,,Mostly Cloudy,340,2013-09-23 08:53:00
5:53 AM,48.0,39.9,74,29.97,10.0,NNW,9.2,-,N/A,,Clear,330,2013-09-23 09:53:00
6:53 AM,48.0,39.9,74,30.00,10.0,NNW,9.2,16.1,N/A,,Clear,340,2013-09-23 10:53:00
7:53 AM,51.1,39.9,66,30.01,10.0,NNW,8.1,17.3,N/A,,Clear,340,2013-09-23 11:53:00
8:53 AM,54.0,39.9,59,30.02,10.0,North,10.4,18.4,N/A,,Clear,360,2013-09-23 12:53:00
9:53 AM,57.0,39.9,53,30.02,10.0,North,13.8,21.9,N/A,,Clear,10,2013-09-23 13:53:00
10:53 AM,59.0,39.9,49,30.01,10.0,North,12.7,21.9,N/A,,Clear,360,2013-09-23 14:53:00
11:53 AM,62.1,41.0,46,30.01,10.0,NNW,10.4,24.2,N/A,,Clear,340,2013-09-23 15:53:00
12:53 PM,63.0,41.0,45,30.00,10.0,WNW,8.1,21.9,N/A,,Partly Cloudy,290,2013-09-23 16:53:00
1:53 PM,64.0,39.9,41,29.98,10.0,NNE,10.4,-,N/A,,Partly Cloudy,20,2013-09-23 17:53:00
2:53 PM,64.9,41.0,42,29.97,10.0,NW,15.0,20.7,N/A,,Partly Cloudy,320,2013-09-23 18:53:00
3:53 PM,66.0,42.1,42,29.96,10.0,NW,12.7,19.6,N/A,,Partly Cloudy,320,2013-09-23 19:53:00
4:53 PM,66.0,42.1,42,29.97,10.0,NNW,9.2,-,N/A,,Clear,340,2013-09-23 20:53:00
5:53 PM,64.0,42.1,45,29.98,10.0,North,6.9,18.4,N/A,,Partly Cloudy,350,2013-09-23 21:53:00
6:53 PM,60.1,43.0,53,30.00,10.0,NNW,4.6,-,N/A,,Clear,330,2013-09-23 22:53:00
7:53 PM,57.0,43.0,59,30.01,10.0,NNW,8.1,-,N/A,,Clear,340,2013-09-23 23:53:00
8:53 PM,54.0,43.0,66,30.04,10.0,NNW,6.9,-,N/A,,Clear,340,2013-09-24 00:53:00
9:53 PM,51.1,42.1,71,30.04,10.0,North,5.8,-,N/A,,Clear,350,2013-09-24 01:53:00
10:53 PM,51.1,42.1,71,30.04,10.0,NNW,8.1,-,N/A,,Clear,330,2013-09-24 02:53:00
11:53 PM,50.0,41.0,71,30.04,10.0,NNW,4.6,-,N/A,,Clear,340,2013-09-24 03:53:00